Latest Weather Observations for Christmas Creek

IDW60801

Issued at 10:02 pm WST Saturday 28 March 2015 (issued every 30 minutes, with the page automatically refreshed every 10 minutes)

About weather observations | Map of weather stations | Latest weather observations for WA | Other Formats
Station Details ID: 505049 Name: CHRISTMAS CREEK Lat: -22.36 Lon: 119.65 Height: 437.21 m
Data from the previous 72 hours. | See also: Recent months for locations in Western Australia
Date/Time
WST
Temp
°C
App
Temp
°C
Dew
Point
Rel
Hum
%
Delta-T
°C
Wind Press
QNH
hPa
Press
MSL
hPa
Rain
since 9 am
mm
Dir
 
Spd
km/h
Gust
km/h
Spd
kts
Gust
kts
28/10:00pm 28.0 25.9 13.6 41 8.7 SE 17 24 9 13 1017.0 1013.9 0.0
28/09:30pm 29.1 27.5 12.8 36 9.8 SE 13 20 7 11 1016.8 1013.7 0.0
28/09:00pm 29.4 27.7 12.6 35 10.0 SE 13 22 7 12 1016.7 1013.6 0.0
28/08:30pm 29.8 28.1 12.5 34 10.4 SE 13 17 7 9 1016.4 1013.3 0.0
28/08:00pm 30.1 28.0 12.5 34 10.5 SE 15 20 8 11 1016.0 1012.9 0.0
28/07:30pm 30.4 28.3 12.3 33 10.8 SE 15 20 8 11 1015.7 1012.5 0.0
28/07:00pm 31.0 28.8 12.1 31 11.3 SSE 15 22 8 12 1015.1 1012.0 0.0
28/06:30pm 31.6 28.9 11.7 29 11.9 SSE 17 22 9 12 1014.6 1011.5 0.0
28/06:00pm 32.8 31.1 11.1 26 12.9 ESE 11 19 6 10 1014.4 1011.3 0.0
28/05:30pm 33.1 31.0 11.1 26 13.1 SE 13 19 7 10 1014.1 1011.0 0.0
28/05:00pm 33.1 31.4 11.2 26 13.0 SE 11 19 6 10 1014.1 1011.0 0.0
28/04:30pm 33.1 31.8 11.1 26 13.1 SE 9 20 5 11 1013.9 1010.8 0.0
28/04:00pm 33.3 31.6 11.2 26 13.2 E 11 19 6 10 1013.9 1010.8 0.0
28/03:30pm 33.2 31.9 11.2 26 13.1 E 9 19 5 10 1014.1 1011.0 0.0
28/03:00pm 33.1 30.2 11.0 26 13.1 ESE 17 24 9 13 1014.2 1011.1 0.0
28/02:30pm 33.3 31.5 11.0 25 13.2 ESE 11 22 6 12 1014.5 1011.4 0.0
28/02:00pm 32.4 30.2 10.9 26 12.7 ESE 13 26 7 14 1014.9 1011.8 0.0
28/01:30pm 32.3 29.8 11.2 27 12.5 SE 15 26 8 14 1015.2 1012.1 0.0
28/01:00pm 31.5 28.2 10.9 28 12.1 E 19 32 10 17 1015.8 1012.7 0.0
28/12:30pm 31.7 28.6 11.5 29 12.0 ESE 19 35 10 19 1016.4 1013.3 0.0
28/12:00pm 31.0 27.8 12.0 31 11.3 SE 20 32 11 17 1016.9 1013.8 0.0
28/11:30am 29.6 26.0 11.7 33 10.6 SE 22 35 12 19 1017.5 1014.4 0.0
28/11:00am 29.4 25.1 12.1 34 10.3 SE 26 33 14 18 1018.3 1015.2 0.0
28/10:30am 28.9 25.1 12.4 36 9.8 SE 24 32 13 17 1018.4 1015.3 0.0
28/10:00am 28.1 23.6 12.7 38 9.2 SE 28 41 15 22 1018.7 1015.6 0.0
28/09:30am 27.3 23.7 13.0 41 8.5 ESE 24 37 13 20 1018.6 1015.5 0.0
28/09:00am 26.2 22.2 13.0 44 7.8 SE 26 33 14 18 1018.9 1015.8 0.0
28/08:30am 25.8 22.2 13.2 45 7.5 ESE 24 32 13 17 1018.8 1015.7 0.0
28/08:00am 24.6 21.8 14.2 52 6.3 SE 22 32 12 17 1018.7 1015.6 0.0
28/07:30am 23.6 21.9 14.8 57 5.3 ESE 17 22 9 12 1018.4 1015.3 0.0
28/07:00am 22.3 21.9 15.3 64 4.2 ESE 11 17 6 9 1017.7 1014.7 0.0
28/06:30am 21.5 21.6 15.6 69 3.6 ESE 9 13 5 7 1017.7 1014.7 0.0
28/06:00am 21.3 21.1 15.8 71 3.4 SE 11 17 6 9 1017.7 1014.7 0.0
28/05:30am 21.4 21.6 15.8 70 3.4 SE 9 15 5 8 1017.5 1014.4 0.0
28/05:00am 21.7 21.5 15.8 69 3.6 SE 11 17 6 9 1017.4 1014.3 0.0
28/04:30am 22.0 21.8 15.7 67 3.8 SE 11 15 6 8 1017.2 1014.1 0.0
28/04:00am 22.2 22.0 15.6 66 4.0 SE 11 17 6 9 1017.2 1014.1 0.0
28/03:30am 22.5 22.3 15.6 65 4.2 SE 11 15 6 8 1016.9 1013.8 0.0
28/03:00am 22.8 22.9 15.6 64 4.4 SE 9 13 5 7 1017.0 1013.9 0.0
28/02:30am 22.9 23.0 15.6 63 4.5 SE 9 15 5 8 1017.3 1014.2 0.0
28/02:00am 23.0 22.4 15.6 63 4.5 SSE 13 17 7 9 1017.4 1014.3 0.0
28/01:30am 23.0 22.8 15.7 63 4.5 SE 11 15 6 8 1017.5 1014.4 0.0
28/01:00am 23.0 22.8 15.8 64 4.4 SE 11 17 6 9 1017.5 1014.4 0.0
28/12:30am 23.1 22.9 15.7 63 4.5 SE 11 19 6 10 1018.1 1015.0 0.0
28/12:00am 23.2 22.5 15.4 61 4.8 SE 13 19 7 10 1018.3 1015.2 0.0
 
Date/Time
WST
Temp
°C
App
Temp
°C
Dew
Point
Rel
Hum
%
Delta-T
°C
Wind Press
QNH
hPa
Press
MSL
hPa
Rain
since 9 am
mm
Dir
 
Spd
km/h
Gust
km/h
Spd
kts
Gust
kts
27/11:30pm 23.2 21.7 15.3 61 4.8 SSE 17 20 9 11 1018.6 1015.5 0.0
27/11:00pm 23.4 22.6 15.2 60 5.0 S 13 17 7 9 1018.6 1015.5 0.0
27/10:30pm 23.5 22.3 15.1 59 5.1 SSE 15 20 8 11 1018.5 1015.4 0.0
27/10:00pm 23.7 22.1 15.0 58 5.3 SSE 17 24 9 13 1018.3 1015.2 0.0
27/09:30pm 24.0 21.9 14.8 56 5.6 SSE 19 28 10 15 1018.4 1015.3 0.0
27/09:00pm 24.6 22.4 14.5 53 6.1 SE 19 26 10 14 1018.3 1015.2 0.0
27/08:30pm 24.7 22.4 14.2 52 6.3 SE 19 26 10 14 1018.2 1015.1 0.0
27/08:00pm 24.9 22.4 14.2 51 6.4 SE 20 28 11 15 1017.8 1014.8 0.0
27/07:30pm 25.1 22.5 13.8 49 6.8 SE 20 32 11 17 1017.7 1014.7 0.0
27/07:00pm 25.3 21.9 13.6 48 7.0 SSE 24 35 13 19 1018.1 1015.0 0.0
27/06:30pm 25.6 22.1 13.5 47 7.2 SSE 24 33 13 18 1017.5 1014.4 0.0
27/06:00pm 26.4 22.5 13.2 44 7.9 SSE 26 35 14 19 1017.4 1014.3 0.0
27/05:30pm 27.1 23.7 13.6 43 8.1 SSE 24 32 13 17 1017.3 1014.2 0.0
27/05:00pm 26.9 22.0 13.6 44 8.0 SSE 32 44 17 24 1017.4 1014.3 0.0
27/04:44pm 27.9 22.3 14.4 43 8.3 SSE 37 56 20 30 1017.0 1013.9 0.0
27/04:30pm 28.6 22.8 12.7 37 9.5 SSE 35 46 19 25 1016.8 1013.7 0.0
27/04:00pm 30.1 24.7 11.0 30 11.2 SSE 30 48 16 26 1016.2 1013.1 0.0
27/03:58pm 31.0 25.6 11.0 29 11.8 SSE 30 48 16 26 1016.2 1013.1 0.0
27/03:30pm 32.1 26.8 11.3 28 12.3 S 30 41 16 22 1015.8 1012.7 0.0
27/03:00pm 33.0 29.3 11.6 27 12.8 SSE 22 32 12 17 1015.7 1012.5 0.0
27/02:30pm 32.9 31.2 12.6 29 12.3 SSE 13 24 7 13 1015.5 1012.4 0.0
27/02:00pm 32.7 31.0 12.4 29 12.3 S 13 24 7 13 1015.9 1012.8 0.0
27/01:30pm 32.1 29.5 11.9 29 12.1 S 17 30 9 16 1016.5 1013.4 0.0
27/01:00pm 31.0 29.1 11.7 30 11.5 SSE 13 24 7 13 1016.7 1013.6 0.0
27/12:30pm 30.6 28.6 11.6 31 11.3 SSE 13 24 7 13 1017.4 1014.3 0.0
27/12:00pm 29.7 28.1 11.6 32 10.7 SSE 11 22 6 12 1018.1 1015.0 0.0
27/11:30am 29.6 27.2 11.4 32 10.7 ESE 15 24 8 13 1018.6 1015.5 0.0
27/11:00am 29.1 25.8 10.8 32 10.6 SE 19 28 10 15 1018.9 1015.8 0.0
27/10:30am 28.9 25.3 10.4 31 10.7 SE 20 28 11 15 1019.3 1016.2 0.0
27/10:00am 27.9 23.8 10.2 33 10.1 SE 22 33 12 18 1019.6 1016.5 0.0
27/09:30am 27.1 23.1 10.4 35 9.6 SSE 22 32 12 17 1020.0 1017.0 0.0
27/09:00am 26.1 22.5 10.6 37 8.8 SSE 20 30 11 16 1019.8 1016.8 0.0
27/08:30am 25.9 21.7 11.0 39 8.6 SSE 24 35 13 19 1019.9 1016.9 0.0
27/08:00am 24.6 20.2 11.6 44 7.5 SE 26 35 14 19 1019.7 1016.6 0.0
27/07:30am 23.4 21.1 13.1 52 6.1 SE 17 26 9 14 1019.5 1016.4 0.0
27/07:00am 21.7 21.8 14.4 63 4.3 SE 7 11 4 6 1019.4 1016.3 0.0
27/06:30am 21.5 21.7 14.6 65 4.1 SE 7 9 4 5 1019.2 1016.1 0.0
27/06:00am 21.2 21.4 14.7 66 3.9 S 7 9 4 5 1019.1 1016.0 0.0
27/05:30am 21.7 21.0 14.2 62 4.5 S 11 15 6 8 1019.0 1015.9 0.0
27/05:00am 22.2 21.0 14.1 60 4.8 SSE 13 19 7 10 1018.7 1015.6 0.0
27/04:30am 22.4 21.3 14.4 60 4.8 SSE 13 20 7 11 1018.5 1015.4 0.0
27/04:00am 22.6 21.6 14.7 61 4.8 SSE 13 19 7 10 1018.5 1015.4 0.0
27/03:30am 23.1 21.3 14.5 58 5.2 SSE 17 22 9 12 1018.5 1015.4 0.0
27/03:00am 23.3 22.4 14.8 59 5.1 SSE 13 20 7 11 1018.7 1015.6 0.0
27/02:30am 23.5 23.0 14.9 58 5.2 SSE 11 15 6 8 1018.8 1015.7 0.0
27/02:00am 23.7 22.9 15.2 59 5.2 SSE 13 17 7 9 1018.9 1015.8 0.0
27/01:30am 24.1 23.0 15.2 57 5.4 SSE 15 20 8 11 1019.2 1016.1 0.0
27/01:00am 24.6 23.8 15.2 55 5.7 SSE 13 22 7 12 1019.4 1016.3 0.0
27/12:30am 25.0 24.3 15.4 55 5.9 SSE 13 22 7 12 1019.5 1016.4 0.0
27/12:00am 25.5 23.9 15.1 52 6.4 SSE 17 24 9 13 1019.6 1016.5 0.0
 
Date/Time
WST
Temp
°C
App
Temp
°C
Dew
Point
Rel
Hum
%
Delta-T
°C
Wind Press
QNH
hPa
Press
MSL
hPa
Rain
since 9 am
mm
Dir
 
Spd
km/h
Gust
km/h
Spd
kts
Gust
kts
26/11:30pm 25.9 23.9 14.9 50 6.7 SSE 19 28 10 15 1019.6 1016.5 0.0
26/11:00pm 26.3 25.3 14.5 48 7.2 SSE 13 19 7 10 1019.7 1016.6 0.0
26/10:30pm 26.8 25.3 14.1 45 7.7 SSE 15 20 8 11 1019.6 1016.5 0.0
26/10:00pm 27.8 25.8 13.9 42 8.4 S 17 24 9 13 1019.5 1016.4 0.0
26/09:30pm 28.8 24.9 12.2 35 9.9 SSE 24 39 13 21 1019.1 1016.0 0.0
26/09:00pm 30.1 27.1 12.0 32 10.7 SSE 19 30 10 16 1019.0 1015.9 0.0
26/08:30pm 30.7 27.6 11.7 31 11.3 ESE 19 28 10 15 1019.0 1015.9 0.0
26/08:00pm 31.0 28.3 11.6 30 11.5 E 17 24 9 13 1018.5 1015.4 0.0
26/07:30pm 30.4 27.4 12.6 33 10.7 NE 20 39 11 21 1018.1 1015.0 0.0
26/07:00pm 30.9 29.2 12.5 32 11.1 SSE 13 17 7 9 1017.2 1014.1 0.0
26/06:30pm 32.0 29.7 11.6 28 12.2 SSE 15 20 8 11 1016.9 1013.8 0.0
26/06:00pm 32.7 29.5 11.3 27 12.7 SSE 19 24 10 13 1016.5 1013.4 0.0
26/05:30pm 33.2 30.0 11.2 26 13.1 SSE 19 26 10 14 1016.3 1013.2 0.0
26/05:00pm 34.0 33.0 10.3 23 13.9 E 6 9 3 5 1016.1 1013.0 0.0
26/04:30pm 34.4 32.9 10.5 23 14.1 ESE 9 19 5 10 1016.0 1012.9 0.0
26/04:00pm 34.4 32.4 10.2 22 14.2 E 11 20 6 11 1015.9 1012.8 0.0
26/03:30pm 34.3 32.8 10.4 23 14.1 E 9 19 5 10 1015.9 1012.8 0.0
26/03:00pm 33.8 32.3 10.7 24 13.7 ESE 9 19 5 10 1016.1 1013.0 0.0
26/02:30pm 33.6 32.0 10.3 24 13.7 ESE 9 19 5 10 1016.2 1013.1 0.0
26/02:00pm 33.8 32.9 10.7 24 13.7 ESE 6 15 3 8 1016.3 1013.2 0.0
26/01:30pm 33.7 31.5 10.9 25 13.5 ENE 13 26 7 14 1016.7 1013.6 0.0
26/01:00pm 33.5 30.9 10.6 24 13.5 ENE 15 32 8 17 1017.1 1014.0 0.0
26/12:30pm 32.6 29.5 10.2 25 13.1 ESE 17 28 9 15 1017.4 1014.3 0.0
26/12:00pm 31.5 29.5 10.0 26 12.5 SE 11 22 6 12 1018.2 1015.1 0.0
26/11:30am 30.8 27.2 9.9 27 12.1 ESE 19 32 10 17 1018.7 1015.6 0.0
26/11:00am 29.9 26.3 9.8 28 11.5 SE 19 30 10 16 1019.3 1016.2 0.0
26/10:30am 28.2 24.1 10.1 32 10.4 SE 22 32 12 17 1019.7 1016.6 0.0
26/10:00am 27.4 23.3 10.0 33 9.9 ESE 22 32 12 17 1020.0 1017.0 0.0
26/09:30am 26.5 22.0 9.9 35 9.4 ESE 24 33 13 18 1020.6 1017.5 0.0
26/09:00am 25.6 21.1 10.0 37 8.8 ESE 24 35 13 19 1020.4 1017.4 0.0
26/08:30am 24.1 20.4 10.0 41 7.9 SE 20 30 11 16 1020.6 1017.5 0.0
26/08:00am 23.3 19.9 10.4 44 7.2 SE 19 28 10 15 1020.4 1017.4 0.0
26/07:30am 23.1 19.7 10.7 45 7.0 SE 19 26 10 14 1020.0 1017.0 0.0
26/07:00am 22.4 19.6 11.3 49 6.3 SE 17 24 9 13 1019.7 1016.6 0.0
26/06:30am 22.5 20.1 11.4 49 6.3 SSE 15 24 8 13 1019.6 1016.5 0.0
26/06:00am 22.5 20.2 11.6 50 6.2 SSE 15 20 8 11 1019.3 1016.2 0.0
26/05:30am 22.3 20.5 12.2 52 5.8 SSE 13 19 7 10 1019.0 1015.9 0.0
26/05:00am 22.3 21.0 12.6 54 5.6 SE 11 19 6 10 1018.7 1015.6 0.0
26/04:30am 21.9 20.5 13.4 58 5.0 SSE 13 19 7 10 1018.5 1015.4 0.0
26/04:00am 22.2 20.8 13.5 57 5.1 S 13 20 7 11 1018.2 1015.1 0.0
26/03:30am 22.5 22.0 13.7 57 5.2 SSE 9 15 5 8 1017.9 1014.9 0.0
26/03:00am 23.5 22.5 13.5 53 5.9 SSE 11 17 6 9 1017.8 1014.8 0.0
26/02:30am 23.8 22.9 13.8 53 6.0 SSE 11 17 6 9 1017.7 1014.7 0.0
26/02:00am 24.4 23.1 13.8 51 6.3 SE 13 19 7 10 1017.6 1014.5 0.0
26/01:30am 25.0 22.9 13.7 49 6.8 SE 17 22 9 12 1017.6 1014.5 0.0
26/01:00am 25.1 23.6 14.3 51 6.5 SE 15 24 8 13 1017.7 1014.7 0.0
26/12:30am 24.0 24.7 16.1 61 4.9 S 7 11 4 6 1017.9 1014.9 0.0
26/12:00am 24.7 25.3 15.4 56 5.7 SSE 6 9 3 5 1017.9 1014.9 0.0
 
Date/Time
WST
Temp
°C
App
Temp
°C
Dew
Point
Rel
Hum
%
Delta-T
°C
Wind Press
QNH
hPa
Press
MSL
hPa
Rain
since 9 am
mm
Dir
 
Spd
km/h
Gust
km/h
Spd
kts
Gust
kts
25/11:30pm 25.8 26.4 15.4 52 6.4 ESE 6 7 3 4 1017.8 1014.8 0.0
25/11:00pm 26.6 26.8 14.8 48 7.2 ESE 7 9 4 5 1017.6 1014.5 0.0
25/10:30pm 27.3 27.1 14.6 45 7.8 ESE 9 13 5 7 1017.5 1014.4 0.0

Other Formats:

Comma delimited format used in spreadsheet applications
http://www.bom.gov.au/fwo/IDW60801/IDW60801.99737.axf

JavaScript Object Notation format (JSON) in row-major order
http://www.bom.gov.au/fwo/IDW60801/IDW60801.99737.json